sensor_id;sensor_type;location;lat;lon;timestamp;temperature;humidity
41557;DHT22;27720;51.992;5.890;2023-06-10T00:01:46;25.10;56.70
41557;DHT22;27720;51.992;5.890;2023-06-10T00:04:15;25.10;56.70
41557;DHT22;27720;51.992;5.890;2023-06-10T00:06:45;25.00;56.80
41557;DHT22;27720;51.992;5.890;2023-06-10T00:09:14;25.10;56.90
41557;DHT22;27720;51.992;5.890;2023-06-10T00:11:40;25.00;56.90
41557;DHT22;27720;51.992;5.890;2023-06-10T00:14:07;25.00;56.90
41557;DHT22;27720;51.992;5.890;2023-06-10T00:16:33;24.90;56.90
41557;DHT22;27720;51.992;5.890;2023-06-10T00:19:03;24.90;57.10
41557;DHT22;27720;51.992;5.890;2023-06-10T00:21:32;24.80;57.00
41557;DHT22;27720;51.992;5.890;2023-06-10T00:24:09;24.80;57.00
41557;DHT22;27720;51.992;5.890;2023-06-10T00:26:41;24.80;57.00
41557;DHT22;27720;51.992;5.890;2023-06-10T00:29:07;24.70;57.00
41557;DHT22;27720;51.992;5.890;2023-06-10T00:31:37;24.60;56.90
41557;DHT22;27720;51.992;5.890;2023-06-10T00:34:07;24.70;57.00
41557;DHT22;27720;51.992;5.890;2023-06-10T00:36:33;24.60;56.90
41557;DHT22;27720;51.992;5.890;2023-06-10T00:39:03;24.60;56.90
41557;DHT22;27720;51.992;5.890;2023-06-10T00:41:32;24.50;56.70
41557;DHT22;27720;51.992;5.890;2023-06-10T00:43:59;24.50;56.80
41557;DHT22;27720;51.992;5.890;2023-06-10T00:46:26;24.50;56.70
41557;DHT22;27720;51.992;5.890;2023-06-10T00:48:55;24.40;56.60
41557;DHT22;27720;51.992;5.890;2023-06-10T00:51:22;24.30;56.30
41557;DHT22;27720;51.992;5.890;2023-06-10T00:53:48;24.30;56.30
41557;DHT22;27720;51.992;5.890;2023-06-10T00:56:19;24.30;56.20
41557;DHT22;27720;51.992;5.890;2023-06-10T00:58:50;24.20;56.20
41557;DHT22;27720;51.992;5.890;2023-06-10T01:01:16;24.20;56.20
41557;DHT22;27720;51.992;5.890;2023-06-10T01:03:43;24.20;56.20
41557;DHT22;27720;51.992;5.890;2023-06-10T01:06:24;24.10;56.10
41557;DHT22;27720;51.992;5.890;2023-06-10T01:09:37;24.20;56.10
41557;DHT22;27720;51.992;5.890;2023-06-10T01:11:54;24.10;56.10
41557;DHT22;27720;51.992;5.890;2023-06-10T01:14:23;24.00;56.10
41557;DHT22;27720;51.992;5.890;2023-06-10T01:16:51;24.00;56.10
41557;DHT22;27720;51.992;5.890;2023-06-10T01:19:18;24.00;56.10
41557;DHT22;27720;51.992;5.890;2023-06-10T01:21:44;24.00;56.10
41557;DHT22;27720;51.992;5.890;2023-06-10T01:24:18;23.90;56.10
41557;DHT22;27720;51.992;5.890;2023-06-10T01:26:49;23.90;56.10
41557;DHT22;27720;51.992;5.890;2023-06-10T01:29:33;23.90;56.20
41557;DHT22;27720;51.992;5.890;2023-06-10T01:32:18;23.90;56.20
41557;DHT22;27720;51.992;5.890;2023-06-10T01:34:48;23.80;56.20
41557;DHT22;27720;51.992;5.890;2023-06-10T01:37:18;23.80;56.40
41557;DHT22;27720;51.992;5.890;2023-06-10T01:39:57;23.70;56.40
41557;DHT22;27720;51.992;5.890;2023-06-10T01:42:26;23.70;56.40
41557;DHT22;27720;51.992;5.890;2023-06-10T01:44:55;23.70;56.60
41557;DHT22;27720;51.992;5.890;2023-06-10T01:47:23;23.60;56.60
41557;DHT22;27720;51.992;5.890;2023-06-10T01:49:57;23.60;56.60
41557;DHT22;27720;51.992;5.890;2023-06-10T01:52:24;23.60;56.70
41557;DHT22;27720;51.992;5.890;2023-06-10T01:54:50;23.40;56.70
41557;DHT22;27720;51.992;5.890;2023-06-10T01:57:25;23.50;57.00
41557;DHT22;27720;51.992;5.890;2023-06-10T01:59:54;23.50;57.00
41557;DHT22;27720;51.992;5.890;2023-06-10T02:02:20;23.40;57.70
41557;DHT22;27720;51.992;5.890;2023-06-10T02:04:49;23.40;57.20
41557;DHT22;27720;51.992;5.890;2023-06-10T02:07:23;23.40;57.20
41557;DHT22;27720;51.992;5.890;2023-06-10T02:10:03;23.30;57.30
41557;DHT22;27720;51.992;5.890;2023-06-10T02:12:51;23.30;57.50
41557;DHT22;27720;51.992;5.890;2023-06-10T02:15:21;23.30;57.70
41557;DHT22;27720;51.992;5.890;2023-06-10T02:17:48;23.30;57.80
41557;DHT22;27720;51.992;5.890;2023-06-10T02:20:17;23.20;57.90
41557;DHT22;27720;51.992;5.890;2023-06-10T02:22:43;23.20;58.10
41557;DHT22;27720;51.992;5.890;2023-06-10T02:25:09;23.20;58.20
41557;DHT22;27720;51.992;5.890;2023-06-10T02:27:38;23.10;58.30
41557;DHT22;27720;51.992;5.890;2023-06-10T02:30:05;23.10;58.40
41557;DHT22;27720;51.992;5.890;2023-06-10T02:32:34;23.10;58.50
41557;DHT22;27720;51.992;5.890;2023-06-10T02:35:02;23.00;58.90
41557;DHT22;27720;51.992;5.890;2023-06-10T02:37:28;23.00;59.00
41557;DHT22;27720;51.992;5.890;2023-06-10T02:39:56;22.90;59.10
41557;DHT22;27720;51.992;5.890;2023-06-10T02:42:22;22.90;59.20
41557;DHT22;27720;51.992;5.890;2023-06-10T02:44:48;22.90;59.40
41557;DHT22;27720;51.992;5.890;2023-06-10T02:47:25;22.90;59.50
41557;DHT22;27720;51.992;5.890;2023-06-10T02:49:53;22.80;59.60
41557;DHT22;27720;51.992;5.890;2023-06-10T02:52:23;22.80;59.80
41557;DHT22;27720;51.992;5.890;2023-06-10T02:54:52;22.80;60.00
41557;DHT22;27720;51.992;5.890;2023-06-10T02:57:21;22.80;60.10
41557;DHT22;27720;51.992;5.890;2023-06-10T02:59:49;22.80;60.20
41557;DHT22;27720;51.992;5.890;2023-06-10T03:02:25;22.70;60.30
41557;DHT22;27720;51.992;5.890;2023-06-10T03:04:55;22.70;60.40
41557;DHT22;27720;51.992;5.890;2023-06-10T03:07:22;22.60;60.60
41557;DHT22;27720;51.992;5.890;2023-06-10T03:09:50;22.60;60.70
41557;DHT22;27720;51.992;5.890;2023-06-10T03:12:18;22.60;60.80
41557;DHT22;27720;51.992;5.890;2023-06-10T03:14:47;22.60;60.90
41557;DHT22;27720;51.992;5.890;2023-06-10T03:17:13;22.60;61.00
41557;DHT22;27720;51.992;5.890;2023-06-10T03:19:42;22.60;61.00
41557;DHT22;27720;51.992;5.890;2023-06-10T03:22:12;22.50;61.10
41557;DHT22;27720;51.992;5.890;2023-06-10T03:24:44;22.50;61.10
41557;DHT22;27720;51.992;5.890;2023-06-10T03:27:13;22.50;61.30
41557;DHT22;27720;51.992;5.890;2023-06-10T03:29:43;22.40;61.30
41557;DHT22;27720;51.992;5.890;2023-06-10T03:32:09;22.40;61.50
41557;DHT22;27720;51.992;5.890;2023-06-10T03:34:37;22.40;61.60
41557;DHT22;27720;51.992;5.890;2023-06-10T03:37:06;22.40;61.60
41557;DHT22;27720;51.992;5.890;2023-06-10T03:39:32;22.30;61.70
41557;DHT22;27720;51.992;5.890;2023-06-10T03:41:59;22.30;61.90
41557;DHT22;27720;51.992;5.890;2023-06-10T03:44:39;22.30;62.00
41557;DHT22;27720;51.992;5.890;2023-06-10T03:47:07;22.30;61.90
41557;DHT22;27720;51.992;5.890;2023-06-10T03:49:36;22.10;62.10
41557;DHT22;27720;51.992;5.890;2023-06-10T03:52:02;22.10;62.40
41557;DHT22;27720;51.992;5.890;2023-06-10T03:54:28;22.10;62.50
41557;DHT22;27720;51.992;5.890;2023-06-10T03:56:57;22.10;62.60
41557;DHT22;27720;51.992;5.890;2023-06-10T03:59:25;22.00;62.60
41557;DHT22;27720;51.992;5.890;2023-06-10T04:01:52;22.00;62.70
41557;DHT22;27720;51.992;5.890;2023-06-10T04:04:18;22.00;62.90
41557;DHT22;27720;51.992;5.890;2023-06-10T04:06:46;21.90;63.00
41557;DHT22;27720;51.992;5.890;2023-06-10T04:09:14;21.90;63.10
41557;DHT22;27720;51.992;5.890;2023-06-10T04:11:46;21.90;63.30
41557;DHT22;27720;51.992;5.890;2023-06-10T04:22:31;21.70;63.70
41557;DHT22;27720;51.992;5.890;2023-06-10T04:24:57;21.70;64.10
41557;DHT22;27720;51.992;5.890;2023-06-10T04:27:26;21.60;64.30
41557;DHT22;27720;51.992;5.890;2023-06-10T04:29:52;21.70;64.50
41557;DHT22;27720;51.992;5.890;2023-06-10T04:35:10;21.70;64.40
41557;DHT22;27720;51.992;5.890;2023-06-10T04:37:42;21.70;64.60
41557;DHT22;27720;51.992;5.890;2023-06-10T04:40:54;21.70;64.70
41557;DHT22;27720;51.992;5.890;2023-06-10T04:43:22;21.70;64.80
41557;DHT22;27720;51.992;5.890;2023-06-10T04:48:42;21.70;64.90
41557;DHT22;27720;51.992;5.890;2023-06-10T04:51:08;21.70;65.20
41557;DHT22;27720;51.992;5.890;2023-06-10T04:53:36;21.60;65.30
41557;DHT22;27720;51.992;5.890;2023-06-10T04:56:06;21.70;65.40
41557;DHT22;27720;51.992;5.890;2023-06-10T04:58:34;21.70;65.40
41557;DHT22;27720;51.992;5.890;2023-06-10T05:04:10;21.70;65.50
41557;DHT22;27720;51.992;5.890;2023-06-10T05:09:28;21.70;65.70
41557;DHT22;27720;51.992;5.890;2023-06-10T05:11:54;21.70;65.80
41557;DHT22;27720;51.992;5.890;2023-06-10T05:14:20;21.70;65.80
41557;DHT22;27720;51.992;5.890;2023-06-10T05:16:49;21.80;65.70
41557;DHT22;27720;51.992;5.890;2023-06-10T05:19:14;21.80;65.70
41557;DHT22;27720;51.992;5.890;2023-06-10T05:21:45;21.80;65.70
41557;DHT22;27720;51.992;5.890;2023-06-10T05:24:14;21.90;65.70
41557;DHT22;27720;51.992;5.890;2023-06-10T05:26:41;22.00;65.70
41557;DHT22;27720;51.992;5.890;2023-06-10T05:29:20;22.00;65.50
41557;DHT22;27720;51.992;5.890;2023-06-10T05:31:46;22.00;65.50
41557;DHT22;27720;51.992;5.890;2023-06-10T05:34:12;22.10;65.60
41557;DHT22;27720;51.992;5.890;2023-06-10T05:37:18;22.10;65.50
41557;DHT22;27720;51.992;5.890;2023-06-10T05:39:44;22.20;65.20
41557;DHT22;27720;51.992;5.890;2023-06-10T05:42:10;22.20;65.40
41557;DHT22;27720;51.992;5.890;2023-06-10T05:44:36;22.20;65.30
41557;DHT22;27720;51.992;5.890;2023-06-10T05:47:04;22.30;65.30
41557;DHT22;27720;51.992;5.890;2023-06-10T05:49:34;22.30;65.20
41557;DHT22;27720;51.992;5.890;2023-06-10T05:52:01;22.30;65.10
41557;DHT22;27720;51.992;5.890;2023-06-10T05:54:27;22.40;65.20
41557;DHT22;27720;51.992;5.890;2023-06-10T05:56:55;22.50;65.10
41557;DHT22;27720;51.992;5.890;2023-06-10T05:59:24;22.50;65.00
41557;DHT22;27720;51.992;5.890;2023-06-10T06:01:51;22.50;65.60
41557;DHT22;27720;51.992;5.890;2023-06-10T06:04:35;22.60;64.90
41557;DHT22;27720;51.992;5.890;2023-06-10T06:07:20;22.70;64.60
41557;DHT22;27720;51.992;5.890;2023-06-10T06:09:47;22.80;64.70
41557;DHT22;27720;51.992;5.890;2023-06-10T06:12:17;22.80;64.40
41557;DHT22;27720;51.992;5.890;2023-06-10T06:14:46;22.90;64.20
41557;DHT22;27720;51.992;5.890;2023-06-10T06:17:12;23.00;64.20
41557;DHT22;27720;51.992;5.890;2023-06-10T06:19:40;23.00;64.00
41557;DHT22;27720;51.992;5.890;2023-06-10T06:22:07;23.10;63.80
41557;DHT22;27720;51.992;5.890;2023-06-10T06:24:34;23.20;63.70
41557;DHT22;27720;51.992;5.890;2023-06-10T06:27:07;23.30;63.50
41557;DHT22;27720;51.992;5.890;2023-06-10T06:29:32;23.40;63.30
41557;DHT22;27720;51.992;5.890;2023-06-10T06:32:00;23.40;63.10
41557;DHT22;27720;51.992;5.890;2023-06-10T06:34:26;23.50;63.00
41557;DHT22;27720;51.992;5.890;2023-06-10T06:36:52;23.60;63.00
41557;DHT22;27720;51.992;5.890;2023-06-10T06:39:19;23.70;62.90
41557;DHT22;27720;51.992;5.890;2023-06-10T06:41:45;23.80;62.80
41557;DHT22;27720;51.992;5.890;2023-06-10T06:44:11;23.90;62.70
41557;DHT22;27720;51.992;5.890;2023-06-10T06:46:38;23.90;62.30
41557;DHT22;27720;51.992;5.890;2023-06-10T06:49:03;24.00;62.20
41557;DHT22;27720;51.992;5.890;2023-06-10T06:51:29;24.10;62.90
41557;DHT22;27720;51.992;5.890;2023-06-10T06:53:55;24.20;62.00
41557;DHT22;27720;51.992;5.890;2023-06-10T06:56:24;24.20;62.50
41557;DHT22;27720;51.992;5.890;2023-06-10T06:58:50;24.30;61.70
41557;DHT22;27720;51.992;5.890;2023-06-10T07:01:16;24.40;61.60
41557;DHT22;27720;51.992;5.890;2023-06-10T07:03:41;24.60;61.60
41557;DHT22;27720;51.992;5.890;2023-06-10T07:06:07;24.70;61.50
41557;DHT22;27720;51.992;5.890;2023-06-10T07:08:33;24.90;61.30
41557;DHT22;27720;51.992;5.890;2023-06-10T07:10:58;25.00;61.10
41557;DHT22;27720;51.992;5.890;2023-06-10T07:13:24;25.10;60.80
41557;DHT22;27720;51.992;5.890;2023-06-10T07:15:49;25.20;60.60
41557;DHT22;27720;51.992;5.890;2023-06-10T07:18:15;25.30;60.30
41557;DHT22;27720;51.992;5.890;2023-06-10T07:20:42;25.50;60.20
41557;DHT22;27720;51.992;5.890;2023-06-10T07:23:08;25.60;60.00
41557;DHT22;27720;51.992;5.890;2023-06-10T07:25:34;25.70;59.70
41557;DHT22;27720;51.992;5.890;2023-06-10T07:28:01;25.90;59.70
41557;DHT22;27720;51.992;5.890;2023-06-10T07:30:27;26.00;59.40
41557;DHT22;27720;51.992;5.890;2023-06-10T07:32:53;26.20;59.30
41557;DHT22;27720;51.992;5.890;2023-06-10T07:35:19;26.30;59.00
41557;DHT22;27720;51.992;5.890;2023-06-10T07:37:46;26.50;58.90
41557;DHT22;27720;51.992;5.890;2023-06-10T07:40:12;26.70;58.80
41557;DHT22;27720;51.992;5.890;2023-06-10T07:42:38;26.80;58.40
41557;DHT22;27720;51.992;5.890;2023-06-10T07:45:04;26.90;57.90
41557;DHT22;27720;51.992;5.890;2023-06-10T07:47:30;26.90;57.50
41557;DHT22;27720;51.992;5.890;2023-06-10T07:49:56;27.00;57.90
41557;DHT22;27720;51.992;5.890;2023-06-10T07:52:22;27.10;57.00
41557;DHT22;27720;51.992;5.890;2023-06-10T07:54:48;27.20;57.00
41557;DHT22;27720;51.992;5.890;2023-06-10T07:57:13;27.30;56.90
41557;DHT22;27720;51.992;5.890;2023-06-10T07:59:39;27.40;56.70
41557;DHT22;27720;51.992;5.890;2023-06-10T08:02:05;27.50;56.50
41557;DHT22;27720;51.992;5.890;2023-06-10T08:04:31;27.70;56.20
41557;DHT22;27720;51.992;5.890;2023-06-10T08:06:57;27.80;56.00
41557;DHT22;27720;51.992;5.890;2023-06-10T08:09:23;27.90;56.10
41557;DHT22;27720;51.992;5.890;2023-06-10T08:11:49;28.00;55.60
41557;DHT22;27720;51.992;5.890;2023-06-10T08:14:15;28.10;55.10
41557;DHT22;27720;51.992;5.890;2023-06-10T08:16:42;28.20;55.10
41557;DHT22;27720;51.992;5.890;2023-06-10T08:19:08;28.30;54.80
41557;DHT22;27720;51.992;5.890;2023-06-10T08:21:35;28.50;54.60
41557;DHT22;27720;51.992;5.890;2023-06-10T08:24:03;28.60;54.20
41557;DHT22;27720;51.992;5.890;2023-06-10T08:26:28;28.70;54.00
41557;DHT22;27720;51.992;5.890;2023-06-10T08:28:54;28.80;54.00
41557;DHT22;27720;51.992;5.890;2023-06-10T08:31:21;29.00;53.80
41557;DHT22;27720;51.992;5.890;2023-06-10T08:33:46;29.20;53.50
41557;DHT22;27720;51.992;5.890;2023-06-10T08:36:12;29.30;53.00
41557;DHT22;27720;51.992;5.890;2023-06-10T08:38:38;29.30;53.00
41557;DHT22;27720;51.992;5.890;2023-06-10T08:41:05;29.50;53.20
41557;DHT22;27720;51.992;5.890;2023-06-10T08:43:38;29.70;52.90
41557;DHT22;27720;51.992;5.890;2023-06-10T08:46:08;29.80;52.70
41557;DHT22;27720;51.992;5.890;2023-06-10T08:48:35;30.00;52.60
41557;DHT22;27720;51.992;5.890;2023-06-10T08:51:04;30.20;52.50
41557;DHT22;27720;51.992;5.890;2023-06-10T08:53:32;30.40;52.00
41557;DHT22;27720;51.992;5.890;2023-06-10T08:56:01;30.40;51.40
41557;DHT22;27720;51.992;5.890;2023-06-10T08:58:28;30.50;51.20
41557;DHT22;27720;51.992;5.890;2023-06-10T09:00:54;30.60;51.20
41557;DHT22;27720;51.992;5.890;2023-06-10T09:03:21;30.60;50.50
41557;DHT22;27720;51.992;5.890;2023-06-10T09:05:50;30.70;50.60
41557;DHT22;27720;51.992;5.890;2023-06-10T09:08:16;30.80;50.50
41557;DHT22;27720;51.992;5.890;2023-06-10T09:10:43;30.90;50.30
41557;DHT22;27720;51.992;5.890;2023-06-10T09:13:08;30.90;49.70
41557;DHT22;27720;51.992;5.890;2023-06-10T09:15:34;31.00;49.60
41557;DHT22;27720;51.992;5.890;2023-06-10T09:18:00;31.00;49.70
41557;DHT22;27720;51.992;5.890;2023-06-10T09:20:25;31.20;49.60
41557;DHT22;27720;51.992;5.890;2023-06-10T09:22:51;31.30;49.60
41557;DHT22;27720;51.992;5.890;2023-06-10T09:25:17;31.60;49.70
41557;DHT22;27720;51.992;5.890;2023-06-10T09:30:27;31.90;49.20
41557;DHT22;27720;51.992;5.890;2023-06-10T09:32:54;31.90;48.70
41557;DHT22;27720;51.992;5.890;2023-06-10T09:35:27;32.00;48.50
41557;DHT22;27720;51.992;5.890;2023-06-10T09:37:54;32.10;48.40
41557;DHT22;27720;51.992;5.890;2023-06-10T09:40:20;32.40;48.30
41557;DHT22;27720;51.992;5.890;2023-06-10T09:42:46;32.40;48.00
41557;DHT22;27720;51.992;5.890;2023-06-10T09:45:19;32.50;47.80
41557;DHT22;27720;51.992;5.890;2023-06-10T09:47:46;32.60;47.80
41557;DHT22;27720;51.992;5.890;2023-06-10T09:50:12;32.70;47.70
41557;DHT22;27720;51.992;5.890;2023-06-10T09:52:38;32.90;47.20
41557;DHT22;27720;51.992;5.890;2023-06-10T09:55:08;33.00;47.00
41557;DHT22;27720;51.992;5.890;2023-06-10T09:57:33;33.20;47.10
41557;DHT22;27720;51.992;5.890;2023-06-10T10:00:08;33.30;46.40
41557;DHT22;27720;51.992;5.890;2023-06-10T10:02:50;33.40;46.60
